createdAt,value
2023-02-11T00:00:18.024Z,78.83
2023-02-11T00:01:25.165Z,79.31
2023-02-11T00:02:29.627Z,79.13
2023-02-11T00:03:31.232Z,78.75
2023-02-11T00:04:35.709Z,78.88
2023-02-11T00:05:37.353Z,78.87
2023-02-11T00:06:39.115Z,78.53
2023-02-11T00:07:40.671Z,78.59
2023-02-11T00:08:42.316Z,78.83
2023-02-11T00:09:44.006Z,78.80
2023-02-11T00:10:46.510Z,79.36
2023-02-11T00:11:47.966Z,79.08
2023-02-11T00:12:49.385Z,78.84
2023-02-11T00:13:51.212Z,79.40
2023-02-11T00:14:52.751Z,79.51
2023-02-11T00:15:54.938Z,79.32
2023-02-11T00:16:59.809Z,79.74
2023-02-11T00:18:01.534Z,80.15
2023-02-11T00:19:06.837Z,80.16
2023-02-11T00:20:09.133Z,79.87
2023-02-11T00:21:13.684Z,80.04
2023-02-11T00:22:15.280Z,80.21
2023-02-11T00:23:16.906Z,80.11
2023-02-11T00:24:18.585Z,79.90
2023-02-11T00:25:20.530Z,79.69
2023-02-11T00:26:24.514Z,79.50
2023-02-11T00:27:26.309Z,79.67
2023-02-11T00:28:28.331Z,79.84
2023-02-11T00:29:29.942Z,79.73
2023-02-11T00:30:31.680Z,79.81
2023-02-11T00:31:33.938Z,79.61
2023-02-11T00:32:35.570Z,79.29
2023-02-11T00:33:37.073Z,79.75
2023-02-11T00:34:38.543Z,79.88
2023-02-11T00:35:39.993Z,79.42
2023-02-11T00:36:41.848Z,79.30
2023-02-11T00:37:43.300Z,79.19
2023-02-11T00:38:45.854Z,79.25
2023-02-11T00:39:47.527Z,79.07
2023-02-11T00:40:48.970Z,78.63
2023-02-11T00:41:50.724Z,78.61
2023-02-11T00:42:52.176Z,78.75
2023-02-11T00:43:53.801Z,78.99
2023-02-11T00:44:55.252Z,79.05
2023-02-11T00:45:56.865Z,78.85
2023-02-11T00:46:58.326Z,78.65
2023-02-11T00:47:59.838Z,78.34
2023-02-11T00:49:03.781Z,78.80
2023-02-11T00:50:06.321Z,78.86
2023-02-11T00:51:08.581Z,79.19
2023-02-11T00:52:10.076Z,79.10
2023-02-11T00:53:11.804Z,78.72
2023-02-11T00:54:13.386Z,78.35
2023-02-11T00:55:15.981Z,78.95
2023-02-11T00:56:17.588Z,78.96
2023-02-11T00:57:19.037Z,78.54
2023-02-11T00:58:21.302Z,78.21
2023-02-11T00:59:22.998Z,78.75
2023-02-11T01:00:24.512Z,78.44
2023-02-11T01:01:26.412Z,78.36
2023-02-11T01:02:27.995Z,78.35
2023-02-11T01:03:30.135Z,77.55
2023-02-11T01:04:31.611Z,77.53
2023-02-11T01:05:33.215Z,78.17
2023-02-11T01:06:34.712Z,78.61
2023-02-11T01:07:36.339Z,78.97
2023-02-11T01:08:38.151Z,78.52
2023-02-11T01:09:42.152Z,78.60
2023-02-11T01:10:44.052Z,79.04
2023-02-11T01:11:45.552Z,78.53
2023-02-11T01:12:47.147Z,78.37
2023-02-11T01:13:49.747Z,78.70
2023-02-11T01:14:51.297Z,78.94
2023-02-11T01:15:53.382Z,78.56
2023-02-11T01:16:55.094Z,78.80
2023-02-11T01:17:56.608Z,78.34
2023-02-11T01:18:58.916Z,78.28
2023-02-11T01:20:04.093Z,78.72
2023-02-11T01:21:05.706Z,79.34
2023-02-11T01:22:10.144Z,79.42
2023-02-11T01:23:16.135Z,78.99
2023-02-11T01:24:17.925Z,79.52
2023-02-11T01:25:22.891Z,79.31
2023-02-11T01:26:24.490Z,79.48
2023-02-11T01:27:26.108Z,79.47
2023-02-11T01:28:29.691Z,79.10
2023-02-11T01:29:31.303Z,79.40
2023-02-11T01:30:33.003Z,79.43
2023-02-11T01:31:35.014Z,79.10
2023-02-11T01:32:36.852Z,78.94
2023-02-11T01:33:38.535Z,79.39
2023-02-11T01:34:40.314Z,79.27
2023-02-11T01:35:42.417Z,79.01
2023-02-11T01:36:43.962Z,78.72
2023-02-11T01:37:45.662Z,78.93
2023-02-11T01:38:47.360Z,79.69
2023-02-11T01:39:48.849Z,79.00
2023-02-11T01:41:02.887Z,79.31
2023-02-11T01:42:04.472Z,78.97
2023-02-11T01:43:06.656Z,79.29
2023-02-11T01:44:24.352Z,79.21
2023-02-11T01:45:58.255Z,78.93
2023-02-11T01:47:00.658Z,79.03
2023-02-11T01:48:02.525Z,79.62
2023-02-11T01:49:18.930Z,79.61
2023-02-11T01:50:20.895Z,79.76
2023-02-11T01:51:32.045Z,80.18
2023-02-11T01:52:39.289Z,80.23
2023-02-11T01:54:00.589Z,80.26
2023-02-11T01:55:31.124Z,79.84
2023-02-11T01:56:54.058Z,79.63
2023-02-11T01:57:59.238Z,79.78
2023-02-11T01:59:11.524Z,79.50
2023-02-11T02:00:15.829Z,79.38
2023-02-11T02:01:23.312Z,79.10
2023-02-11T02:02:37.350Z,79.20
2023-02-11T02:03:43.903Z,79.09
2023-02-11T02:05:02.553Z,78.80
2023-02-11T02:06:12.460Z,79.06
2023-02-11T02:07:25.256Z,79.36
2023-02-11T02:08:32.990Z,79.30
2023-02-11T02:09:40.148Z,78.97
2023-02-11T02:10:45.794Z,79.14
2023-02-11T02:11:47.542Z,79.24
2023-02-11T02:12:49.284Z,79.80
2023-02-11T02:13:50.765Z,80.01
2023-02-11T02:15:20.102Z,79.85
2023-02-11T02:16:23.390Z,80.11
2023-02-11T02:17:41.416Z,79.66
2023-02-11T02:19:01.771Z,79.22
2023-02-11T02:20:25.879Z,78.86
2023-02-11T02:22:01.549Z,78.94
2023-02-11T02:23:02.940Z,78.87
2023-02-11T02:24:22.194Z,78.26
2023-02-11T02:26:09.075Z,78.28
2023-02-11T02:27:25.943Z,78.01
2023-02-11T02:29:05.807Z,78.42
2023-02-11T02:30:33.138Z,78.91
2023-02-11T02:31:52.749Z,78.98
2023-02-11T02:32:57.236Z,79.36
2023-02-11T02:34:19.829Z,79.81
2023-02-11T02:35:48.634Z,79.64
2023-02-11T02:37:11.141Z,79.43
2023-02-11T02:38:34.258Z,79.73
2023-02-11T02:39:37.358Z,79.53
2023-02-11T02:40:48.815Z,79.16
2023-02-11T02:41:52.857Z,79.43
2023-02-11T02:42:55.245Z,79.11
2023-02-11T02:43:57.253Z,79.09
2023-02-11T02:44:58.898Z,79.15
2023-02-11T02:46:33.613Z,79.24
2023-02-11T02:47:35.678Z,78.83
2023-02-11T02:48:37.188Z,78.46
2023-02-11T02:49:38.630Z,78.50
2023-02-11T02:50:40.204Z,78.60
2023-02-11T02:52:07.033Z,78.78
2023-02-11T02:53:49.439Z,78.95
2023-02-11T02:55:15.666Z,79.07
2023-02-11T02:56:33.173Z,78.94
2023-02-11T02:58:02.175Z,79.14
2023-02-11T02:59:19.365Z,79.01
2023-02-11T03:00:30.555Z,79.20
2023-02-11T03:01:37.688Z,79.87
2023-02-11T03:02:54.947Z,79.38
2023-02-11T03:04:05.924Z,79.26
2023-02-11T03:05:19.629Z,79.10
2023-02-11T03:06:47.206Z,78.94
2023-02-11T03:07:59.208Z,79.14
2023-02-11T03:09:13.053Z,79.40
2023-02-11T03:10:18.563Z,79.33
2023-02-11T03:11:21.897Z,79.69
2023-02-11T03:12:25.050Z,79.20
2023-02-11T03:13:28.310Z,79.58
2023-02-11T03:14:32.435Z,79.55
2023-02-11T03:15:38.832Z,79.16
2023-02-11T03:16:41.332Z,79.17
2023-02-11T03:17:46.133Z,79.52
2023-02-11T03:18:53.197Z,80.06
2023-02-11T03:19:56.769Z,79.91
2023-02-11T03:20:59.854Z,79.94
2023-02-11T03:22:05.295Z,80.55
2023-02-11T03:23:30.797Z,80.44
2023-02-11T03:24:37.524Z,80.44
2023-02-11T03:25:53.238Z,81.18
2023-02-11T03:26:57.894Z,81.42
2023-02-11T03:28:06.829Z,81.28
2023-02-11T03:29:16.976Z,81.46
2023-02-11T03:30:28.505Z,81.04
2023-02-11T03:31:44.218Z,81.38
2023-02-11T03:32:51.938Z,81.09
2023-02-11T03:34:02.461Z,81.19
2023-02-11T03:35:32.894Z,81.27
2023-02-11T03:36:50.758Z,81.29
2023-02-11T03:37:57.686Z,81.68
2023-02-11T03:39:01.834Z,82.00
2023-02-11T03:40:08.236Z,81.84
2023-02-11T03:41:11.272Z,82.06
2023-02-11T03:42:15.354Z,81.88
2023-02-11T03:43:21.280Z,81.61
2023-02-11T03:44:25.342Z,81.60
2023-02-11T03:45:28.658Z,81.60
2023-02-11T03:46:38.849Z,81.69
2023-02-11T03:47:46.060Z,81.31
2023-02-11T03:48:51.897Z,81.53
2023-02-11T03:49:55.925Z,81.03
2023-02-11T03:50:59.621Z,81.28
2023-02-11T03:52:03.013Z,81.33
2023-02-11T03:53:06.693Z,81.17
2023-02-11T03:54:14.286Z,81.02
2023-02-11T03:55:18.630Z,80.85
2023-02-11T03:56:23.386Z,80.26
2023-02-11T03:57:24.869Z,80.53
2023-02-11T03:58:26.911Z,80.52
2023-02-11T03:59:28.453Z,81.01
2023-02-11T04:00:32.044Z,80.64
2023-02-11T04:01:34.202Z,80.63
2023-02-11T04:02:37.589Z,80.69
2023-02-11T04:03:39.109Z,80.71
2023-02-11T04:04:40.747Z,80.79
2023-02-11T04:05:42.413Z,80.57
2023-02-11T04:06:44.158Z,80.71
2023-02-11T04:07:45.582Z,80.60
2023-02-11T04:08:47.098Z,80.53
2023-02-11T04:09:49.288Z,80.31
2023-02-11T04:10:51.229Z,80.62
2023-02-11T04:11:52.819Z,80.70
2023-02-11T04:12:54.423Z,80.71
2023-02-11T04:13:56.419Z,81.09
2023-02-11T04:14:57.941Z,80.93
2023-02-11T04:15:59.514Z,81.60
2023-02-11T04:17:01.040Z,81.42
2023-02-11T04:18:03.612Z,81.42
2023-02-11T04:19:05.147Z,81.69
2023-02-11T04:20:07.148Z,81.78
2023-02-11T04:21:09.313Z,81.58
2023-02-11T04:22:10.869Z,81.70
2023-02-11T04:23:12.414Z,81.70
2023-02-11T04:24:14.454Z,81.98
2023-02-11T04:25:16.014Z,82.05
2023-02-11T04:26:17.544Z,81.54
2023-02-11T04:27:19.113Z,81.33
2023-02-11T04:28:20.637Z,81.29
2023-02-11T04:29:22.978Z,81.53
2023-02-11T04:30:24.627Z,81.65
2023-02-11T04:31:26.287Z,81.36
2023-02-11T04:32:28.119Z,81.68
2023-02-11T04:33:30.254Z,81.87
2023-02-11T04:34:31.801Z,81.52
2023-02-11T04:35:33.985Z,81.36
2023-02-11T04:36:35.542Z,81.38
2023-02-11T04:37:37.041Z,81.49
2023-02-11T04:38:38.557Z,81.34
2023-02-11T04:39:40.562Z,81.28
2023-02-11T04:40:42.033Z,81.13
2023-02-11T04:41:43.560Z,80.92
2023-02-11T04:42:45.434Z,81.25
2023-02-11T04:43:46.907Z,80.89
2023-02-11T04:44:48.377Z,80.96
2023-02-11T04:45:50.249Z,81.06
2023-02-11T04:46:52.431Z,80.83
2023-02-11T04:47:54.168Z,81.22
2023-02-11T04:48:56.543Z,81.13
2023-02-11T04:49:58.478Z,81.10
2023-02-11T04:51:00.003Z,81.14
2023-02-11T04:52:01.553Z,81.01
2023-02-11T04:53:03.112Z,81.14
2023-02-11T04:54:04.778Z,81.18
2023-02-11T04:55:06.828Z,81.01
2023-02-11T04:56:08.435Z,81.24
2023-02-11T04:57:09.927Z,81.10
2023-02-11T04:58:11.458Z,81.24
2023-02-11T04:59:13.577Z,80.95
2023-02-11T05:00:16.132Z,81.05
2023-02-11T05:01:17.779Z,81.06
2023-02-11T05:02:19.334Z,81.04
2023-02-11T05:03:20.896Z,80.80
2023-02-11T05:04:22.561Z,80.88
2023-02-11T05:05:24.769Z,80.78
2023-02-11T05:06:26.529Z,80.62
2023-02-11T05:07:28.416Z,81.11
2023-02-11T05:08:30.343Z,81.25
2023-02-11T05:09:31.815Z,81.25
2023-02-11T05:10:34.576Z,81.63
2023-02-11T05:11:36.990Z,81.54
2023-02-11T05:12:38.581Z,81.49
2023-02-11T05:13:40.072Z,81.61
2023-02-11T05:14:41.637Z,81.76
2023-02-11T05:15:43.512Z,81.62
2023-02-11T05:16:44.991Z,81.49
2023-02-11T05:17:47.252Z,81.82
2023-02-11T05:18:52.426Z,82.04
2023-02-11T05:19:54.592Z,81.42
2023-02-11T05:20:56.617Z,81.64
2023-02-11T05:22:02.873Z,81.91
2023-02-11T05:23:04.903Z,81.81
2023-02-11T05:24:06.900Z,81.97
2023-02-11T05:25:08.907Z,81.88
2023-02-11T05:26:11.353Z,82.10
2023-02-11T05:27:13.148Z,82.33
2023-02-11T05:28:14.954Z,82.18
2023-02-11T05:29:16.430Z,82.06
2023-02-11T05:30:18.050Z,82.45
2023-02-11T05:31:19.713Z,82.06
2023-02-11T05:32:21.524Z,81.97
2023-02-11T05:33:25.110Z,81.79
2023-02-11T05:34:27.005Z,81.99
2023-02-11T05:35:28.583Z,81.49
2023-02-11T05:36:33.331Z,81.79
2023-02-11T05:37:35.477Z,81.56
2023-02-11T05:38:38.074Z,81.54
2023-02-11T05:39:42.246Z,81.82
2023-02-11T05:40:44.027Z,81.83
2023-02-11T05:41:45.776Z,81.95
2023-02-11T05:42:47.215Z,81.77
2023-02-11T05:43:51.528Z,81.96
2023-02-11T05:44:53.501Z,81.83
2023-02-11T05:45:55.854Z,82.24
2023-02-11T05:46:57.418Z,82.08
2023-02-11T05:47:58.971Z,82.57
2023-02-11T05:49:00.484Z,82.41
2023-02-11T05:50:02.083Z,82.54
2023-02-11T05:51:03.720Z,82.95
2023-02-11T05:52:05.631Z,83.17
2023-02-11T05:53:07.269Z,82.80
2023-02-11T05:54:08.891Z,83.07
2023-02-11T05:55:10.600Z,83.04
2023-02-11T05:56:12.674Z,82.50
2023-02-11T05:57:14.345Z,82.55
2023-02-11T05:58:16.311Z,82.76
2023-02-11T05:59:18.377Z,82.57
2023-02-11T06:00:20.106Z,83.03
2023-02-11T06:01:21.645Z,83.04
2023-02-11T06:02:23.169Z,82.71
2023-02-11T06:03:24.702Z,83.34
2023-02-11T06:04:26.475Z,82.69
2023-02-11T06:05:27.971Z,82.90
2023-02-11T06:06:29.626Z,83.17
2023-02-11T06:07:31.220Z,83.01
2023-02-11T06:08:33.162Z,83.42
2023-02-11T06:09:34.652Z,83.10
2023-02-11T06:10:36.247Z,82.75
2023-02-11T06:11:38.120Z,83.02
2023-02-11T06:12:39.702Z,83.21
2023-02-11T06:13:41.187Z,82.95
2023-02-11T06:14:45.727Z,82.97
2023-02-11T06:15:58.794Z,83.14
2023-02-11T06:17:01.997Z,83.14
2023-02-11T06:18:03.503Z,83.59
2023-02-11T06:19:04.875Z,83.63
2023-02-11T06:20:08.689Z,83.72
2023-02-11T06:21:11.482Z,83.50
2023-02-11T06:22:13.292Z,83.96
2023-02-11T06:23:15.237Z,83.89
2023-02-11T06:24:24.686Z,83.68
2023-02-11T06:25:38.381Z,83.73
2023-02-11T06:26:39.865Z,83.79
2023-02-11T06:27:41.789Z,83.96
2023-02-11T06:28:43.529Z,84.23
2023-02-11T06:29:46.053Z,84.13
2023-02-11T06:30:47.543Z,84.18
2023-02-11T06:31:49.180Z,84.17
2023-02-11T06:32:51.718Z,84.27
2023-02-11T06:33:55.008Z,84.26
2023-02-11T06:34:57.059Z,84.23
2023-02-11T06:35:58.507Z,84.26
2023-02-11T06:36:59.972Z,84.30
2023-02-11T06:38:04.219Z,84.29
2023-02-11T06:39:05.772Z,83.92
2023-02-11T06:40:07.806Z,84.03
2023-02-11T06:41:14.142Z,83.81
2023-02-11T06:42:15.701Z,84.09
2023-02-11T06:43:17.426Z,83.93
2023-02-11T06:44:18.866Z,83.93
2023-02-11T06:45:20.621Z,83.32
2023-02-11T06:46:22.313Z,83.58
2023-02-11T06:47:23.792Z,83.24
2023-02-11T06:48:25.374Z,83.09
2023-02-11T06:49:27.164Z,82.77
2023-02-11T06:50:28.703Z,82.29
2023-02-11T06:51:30.218Z,82.40
2023-02-11T06:52:32.685Z,82.41
2023-02-11T06:53:43.676Z,82.31
2023-02-11T06:54:45.113Z,82.41
2023-02-11T06:55:47.016Z,82.84
2023-02-11T06:56:48.459Z,82.71
2023-02-11T06:57:49.943Z,82.56
2023-02-11T06:58:55.616Z,82.85
2023-02-11T06:59:57.126Z,82.74
2023-02-11T07:00:59.233Z,82.61
2023-02-11T07:02:00.891Z,82.72
2023-02-11T07:03:02.535Z,82.78
2023-02-11T07:04:03.993Z,82.65
2023-02-11T07:05:07.082Z,82.68
2023-02-11T07:06:12.763Z,82.10
2023-02-11T07:07:14.422Z,81.78
2023-02-11T07:08:15.862Z,81.72
2023-02-11T07:09:17.302Z,81.72
2023-02-11T07:10:19.089Z,81.74
2023-02-11T07:11:24.500Z,82.28
2023-02-11T07:12:26.037Z,82.14
2023-02-11T07:13:27.973Z,82.09
2023-02-11T07:14:29.434Z,82.25
2023-02-11T07:15:31.192Z,82.62
2023-02-11T07:16:33.013Z,82.86
2023-02-11T07:17:35.694Z,82.84
2023-02-11T07:18:37.426Z,82.79
2023-02-11T07:19:38.934Z,82.92
2023-02-11T07:20:40.401Z,82.87
2023-02-11T07:21:42.026Z,82.41
2023-02-11T07:22:43.511Z,82.76
2023-02-11T07:23:45.614Z,82.61
2023-02-11T07:24:47.106Z,82.16
2023-02-11T07:25:48.812Z,82.46
2023-02-11T07:26:50.494Z,82.19
2023-02-11T07:27:51.913Z,82.36
2023-02-11T07:28:53.422Z,82.24
2023-02-11T07:29:54.894Z,82.50
2023-02-11T07:30:56.396Z,82.67
2023-02-11T07:31:57.925Z,82.95
2023-02-11T07:32:59.434Z,83.41
2023-02-11T07:34:01.934Z,83.59
2023-02-11T07:35:04.279Z,83.76
2023-02-11T07:36:07.667Z,83.22
2023-02-11T07:37:09.164Z,82.97
2023-02-11T07:38:10.593Z,82.94
2023-02-11T07:39:12.504Z,82.39
2023-02-11T07:40:13.958Z,82.28
2023-02-11T07:41:19.102Z,82.07
2023-02-11T07:42:20.523Z,81.80
2023-02-11T07:43:22.280Z,82.02
2023-02-11T07:44:23.811Z,82.22
2023-02-11T07:45:25.428Z,82.13
2023-02-11T07:46:28.058Z,81.79
2023-02-11T07:47:29.508Z,81.81
2023-02-11T07:48:31.148Z,81.68
2023-02-11T07:49:32.740Z,81.87
2023-02-11T07:50:34.209Z,81.65
2023-02-11T07:51:35.647Z,82.02
2023-02-11T07:52:37.174Z,81.99
2023-02-11T07:53:38.909Z,81.74
2023-02-11T07:54:40.477Z,81.86
2023-02-11T07:55:43.376Z,81.53
2023-02-11T07:56:45.058Z,81.67
2023-02-11T07:57:46.641Z,81.69
2023-02-11T07:58:49.005Z,81.60
2023-02-11T07:59:50.528Z,81.55
2023-02-11T08:00:51.972Z,81.30
2023-02-11T08:01:53.538Z,81.68
2023-02-11T08:02:57.219Z,81.28
2023-02-11T08:04:00.564Z,81.08
2023-02-11T08:05:02.005Z,81.22
2023-02-11T08:06:12.041Z,81.20
2023-02-11T08:07:17.860Z,81.18
2023-02-11T08:08:19.437Z,81.34
2023-02-11T08:09:20.904Z,80.72
2023-02-11T08:10:22.561Z,80.96
2023-02-11T08:11:26.918Z,81.19
2023-02-11T08:12:28.406Z,81.13
2023-02-11T08:13:29.842Z,81.05
2023-02-11T08:14:32.808Z,80.42
2023-02-11T08:15:34.476Z,80.69
2023-02-11T08:16:37.176Z,80.85
2023-02-11T08:17:38.699Z,80.75
2023-02-11T08:18:40.126Z,81.11
2023-02-11T08:19:41.607Z,81.54
2023-02-11T08:20:43.119Z,80.67
2023-02-11T08:21:44.754Z,81.10
2023-02-11T08:22:46.216Z,80.94
2023-02-11T08:23:48.094Z,81.15
2023-02-11T08:24:52.081Z,80.95
2023-02-11T08:25:53.989Z,80.75
2023-02-11T08:26:55.476Z,80.74
2023-02-11T08:27:56.986Z,80.37
2023-02-11T08:28:59.503Z,80.41
2023-02-11T08:30:01.875Z,80.45
2023-02-11T08:31:12.267Z,80.50
2023-02-11T08:32:13.865Z,80.40
2023-02-11T08:33:15.336Z,80.30
2023-02-11T08:34:19.140Z,80.26
2023-02-11T08:35:20.621Z,80.21
2023-02-11T08:36:24.521Z,80.50
2023-02-11T08:37:26.063Z,80.20
2023-02-11T08:38:27.610Z,80.31
2023-02-11T08:39:29.097Z,79.93
2023-02-11T08:40:30.698Z,80.21
2023-02-11T08:41:33.874Z,80.23
2023-02-11T08:42:35.337Z,80.40
2023-02-11T08:43:37.550Z,80.41
2023-02-11T08:44:39.158Z,79.99
2023-02-11T08:45:40.640Z,79.77
2023-02-11T08:46:42.120Z,79.44
2023-02-11T08:47:43.655Z,79.88
2023-02-11T08:48:46.295Z,80.03
2023-02-11T08:49:47.918Z,79.42
2023-02-11T08:50:49.531Z,79.69
2023-02-11T08:51:51.325Z,80.06
2023-02-11T08:52:52.831Z,79.87
2023-02-11T08:53:55.084Z,79.51
2023-02-11T08:54:56.653Z,79.55
2023-02-11T08:55:58.260Z,79.51
2023-02-11T08:57:01.906Z,79.07
2023-02-11T08:58:03.431Z,77.73
2023-02-11T08:59:05.619Z,76.68
2023-02-11T09:00:07.869Z,76.83
2023-02-11T09:01:15.922Z,76.74
2023-02-11T09:02:17.879Z,77.00
2023-02-11T09:03:19.283Z,77.21
2023-02-11T09:04:20.702Z,76.93
2023-02-11T09:05:22.878Z,76.50
2023-02-11T09:06:25.789Z,77.15
2023-02-11T09:07:28.915Z,77.76
2023-02-11T09:08:30.402Z,76.64
2023-02-11T09:09:32.038Z,76.10
2023-02-11T09:10:34.535Z,76.03
2023-02-11T09:11:36.434Z,75.21
2023-02-11T09:12:37.902Z,75.15
2023-02-11T09:13:41.980Z,74.38
2023-02-11T09:14:43.516Z,74.13
2023-02-11T09:15:46.799Z,73.90
2023-02-11T09:16:49.104Z,74.71
2023-02-11T09:17:51.026Z,74.59
2023-02-11T09:18:53.287Z,74.61
2023-02-11T09:19:54.773Z,74.57
2023-02-11T09:21:08.200Z,73.89
2023-02-11T09:22:09.689Z,73.68
2023-02-11T09:23:11.266Z,73.26
2023-02-11T09:24:12.745Z,73.48
2023-02-11T09:25:14.216Z,74.13
2023-02-11T09:26:20.359Z,74.30
2023-02-11T09:27:21.938Z,74.65
2023-02-11T09:28:23.466Z,75.31
2023-02-11T09:29:25.005Z,75.92
2023-02-11T09:30:26.726Z,75.59
2023-02-11T09:31:31.934Z,75.39
2023-02-11T09:32:34.432Z,75.76
2023-02-11T09:33:37.105Z,74.59
2023-02-11T09:34:38.663Z,74.68
2023-02-11T09:35:40.525Z,74.88
2023-02-11T09:36:42.358Z,75.09
2023-02-11T09:37:43.788Z,75.44
2023-02-11T09:38:46.574Z,75.63
2023-02-11T09:39:48.473Z,74.70
2023-02-11T09:40:50.363Z,74.71
2023-02-11T09:42:37.103Z,75.31
2023-02-11T09:43:46.315Z,75.16
2023-02-11T09:44:47.682Z,74.86
2023-02-11T09:45:50.797Z,74.99
2023-02-11T09:47:02.848Z,75.81
2023-02-11T09:48:15.750Z,75.05
2023-02-11T09:49:22.838Z,75.28
2023-02-11T09:50:38.965Z,75.76
2023-02-11T09:51:52.368Z,75.96
2023-02-11T09:52:56.586Z,76.23
2023-02-11T09:54:05.687Z,75.83
2023-02-11T09:55:26.662Z,75.17
2023-02-11T09:56:28.428Z,74.21
2023-02-11T09:57:37.141Z,74.75
2023-02-11T09:58:41.073Z,75.04
2023-02-11T09:59:43.250Z,74.88
2023-02-11T10:01:09.662Z,74.67
2023-02-11T10:02:24.578Z,75.27
2023-02-11T10:03:44.249Z,75.29
2023-02-11T10:04:48.503Z,75.72
2023-02-11T10:06:14.399Z,75.60
2023-02-11T10:07:25.630Z,75.53
2023-02-11T10:08:45.777Z,75.91
2023-02-11T10:10:23.062Z,76.31
2023-02-11T10:11:35.111Z,76.24
2023-02-11T10:12:58.272Z,75.78
2023-02-11T10:14:41.403Z,74.60
2023-02-11T10:15:56.184Z,74.79
2023-02-11T10:17:06.765Z,75.21
2023-02-11T10:18:29.808Z,76.14
2023-02-11T10:19:47.349Z,76.44
2023-02-11T10:20:54.336Z,76.23
2023-02-11T10:22:13.032Z,75.63
2023-02-11T10:23:24.754Z,76.13
2023-02-11T10:24:29.099Z,75.78
2023-02-11T10:25:39.541Z,75.94
2023-02-11T10:26:41.850Z,74.55
2023-02-11T10:27:53.987Z,74.54
2023-02-11T10:29:01.792Z,74.69
2023-02-11T10:30:16.009Z,74.63
2023-02-11T10:31:35.756Z,74.16
2023-02-11T10:32:49.329Z,73.65
2023-02-11T10:34:06.429Z,73.51
2023-02-11T10:35:15.582Z,73.87
2023-02-11T10:36:18.429Z,73.74
2023-02-11T10:37:20.054Z,72.78
2023-02-11T10:38:21.791Z,72.99
2023-02-11T10:39:26.784Z,71.98
2023-02-11T10:40:31.314Z,72.46
2023-02-11T10:41:36.922Z,72.65
2023-02-11T10:42:39.883Z,72.31
2023-02-11T10:43:42.800Z,72.29
2023-02-11T10:44:58.816Z,72.88
2023-02-11T10:46:04.777Z,72.26
2023-02-11T10:47:33.248Z,71.82
2023-02-11T10:48:44.206Z,72.07
2023-02-11T10:49:47.337Z,71.92
2023-02-11T10:50:48.997Z,72.39
2023-02-11T10:52:02.960Z,72.58
2023-02-11T10:53:23.820Z,72.79
2023-02-11T10:54:28.438Z,72.88
2023-02-11T10:55:30.073Z,73.18
2023-02-11T10:56:37.193Z,73.71
2023-02-11T10:57:50.206Z,74.04
2023-02-11T10:59:10.123Z,73.70
2023-02-11T11:00:30.439Z,72.96
2023-02-11T11:01:50.052Z,73.13
2023-02-11T11:03:00.277Z,72.21
2023-02-11T11:04:01.890Z,72.33
2023-02-11T11:05:16.255Z,72.28
2023-02-11T11:06:30.310Z,72.56
2023-02-11T11:07:33.850Z,72.69
2023-02-11T11:08:50.565Z,72.69
2023-02-11T11:09:55.467Z,72.12
2023-02-11T11:11:04.875Z,72.45
2023-02-11T11:12:06.378Z,72.40
2023-02-11T11:13:27.610Z,71.64
2023-02-11T11:14:29.658Z,71.88
2023-02-11T11:15:32.664Z,72.18
2023-02-11T11:16:35.209Z,71.95
2023-02-11T11:17:38.049Z,72.02
2023-02-11T11:18:45.161Z,72.00
2023-02-11T11:19:46.645Z,71.62
2023-02-11T11:21:05.884Z,71.32
2023-02-11T11:22:07.463Z,71.60
2023-02-11T11:23:22.447Z,71.84
2023-02-11T11:24:33.601Z,71.66
2023-02-11T11:25:39.579Z,71.41
2023-02-11T11:26:47.916Z,71.10
2023-02-11T11:27:51.595Z,71.48
2023-02-11T11:28:59.843Z,71.90
2023-02-11T11:30:03.456Z,72.44
2023-02-11T11:31:12.407Z,72.63
2023-02-11T11:32:41.996Z,72.60
2023-02-11T11:33:44.671Z,73.15
2023-02-11T11:34:52.588Z,72.95
2023-02-11T11:36:06.821Z,73.11
2023-02-11T11:37:22.453Z,72.70
2023-02-11T11:38:24.575Z,72.73
2023-02-11T11:39:29.828Z,72.63
2023-02-11T11:40:33.466Z,72.98
2023-02-11T11:41:35.165Z,73.13
2023-02-11T11:42:38.812Z,72.87
2023-02-11T11:43:40.614Z,73.26
2023-02-11T11:44:42.033Z,73.13
2023-02-11T11:45:58.608Z,73.91
2023-02-11T11:47:12.097Z,73.66
2023-02-11T11:48:23.161Z,73.07
2023-02-11T11:49:36.269Z,73.11
2023-02-11T11:50:52.992Z,73.46
2023-02-11T11:52:09.354Z,73.59
2023-02-11T11:53:27.161Z,73.66
2023-02-11T11:54:31.403Z,74.26
2023-02-11T11:55:45.307Z,73.85
2023-02-11T11:57:01.568Z,73.40
2023-02-11T11:58:04.918Z,73.57
2023-02-11T11:59:16.849Z,72.95
2023-02-11T12:00:21.944Z,72.73
2023-02-11T12:01:54.080Z,73.29
2023-02-11T12:03:21.126Z,73.00
2023-02-11T12:04:31.824Z,72.69
2023-02-11T12:06:04.527Z,72.85
2023-02-11T12:07:17.938Z,72.73
2023-02-11T12:08:30.888Z,72.40
2023-02-11T12:09:59.173Z,71.86
2023-02-11T12:11:12.406Z,71.96
2023-02-11T12:12:46.560Z,72.31
2023-02-11T12:14:02.222Z,73.03
2023-02-11T12:15:11.891Z,72.94
2023-02-11T12:16:37.164Z,73.20
2023-02-11T12:18:23.684Z,72.77
2023-02-11T12:20:00.453Z,72.72
2023-02-11T12:21:10.968Z,73.46
2023-02-11T12:22:30.983Z,72.15
2023-02-11T12:23:54.496Z,72.63
2023-02-11T12:25:25.476Z,72.47
2023-02-11T12:26:36.308Z,72.27
2023-02-11T12:27:44.442Z,72.19
2023-02-11T12:29:37.481Z,72.75
2023-02-11T12:30:50.491Z,72.60
2023-02-11T12:32:17.261Z,72.75
2023-02-11T12:33:49.766Z,72.59
2023-02-11T12:35:07.277Z,72.66
2023-02-11T12:36:23.400Z,72.61
2023-02-11T12:37:32.871Z,72.64
2023-02-11T12:38:46.999Z,72.39
2023-02-11T12:40:03.213Z,72.26
2023-02-11T12:41:53.469Z,72.13
2023-02-11T12:43:16.712Z,72.12
2023-02-11T12:44:40.264Z,71.96
2023-02-11T12:46:16.034Z,70.80
2023-02-11T12:47:35.626Z,70.74
2023-02-11T12:48:40.931Z,70.60
2023-02-11T12:50:02.850Z,70.42
2023-02-11T12:51:41.755Z,70.83
2023-02-11T12:52:48.031Z,70.80
2023-02-11T12:54:14.593Z,70.43
2023-02-11T12:55:23.448Z,70.75
2023-02-11T12:56:38.880Z,71.32
2023-02-11T12:57:42.310Z,71.70
2023-02-11T12:58:45.795Z,71.27
2023-02-11T13:00:05.049Z,70.86
2023-02-11T13:01:19.201Z,70.89
2023-02-11T13:02:44.673Z,71.44
2023-02-11T13:03:53.521Z,71.44
2023-02-11T13:05:01.587Z,72.42
2023-02-11T13:06:11.712Z,71.69
2023-02-11T13:07:19.864Z,71.86
2023-02-11T13:08:31.467Z,71.67
2023-02-11T13:09:39.431Z,71.28
2023-02-11T13:10:46.457Z,71.18
2023-02-11T13:11:57.995Z,71.60
2023-02-11T13:13:17.443Z,71.88
2023-02-11T13:14:25.080Z,71.89
2023-02-11T13:15:26.835Z,71.96
2023-02-11T13:16:38.046Z,71.78
2023-02-11T13:18:01.241Z,71.20
2023-02-11T13:19:14.081Z,71.09
2023-02-11T13:20:41.886Z,71.54
2023-02-11T13:22:00.518Z,71.14
2023-02-11T13:23:21.879Z,71.41
2023-02-11T13:24:38.509Z,71.12
2023-02-11T13:25:57.463Z,71.15
2023-02-11T13:27:25.352Z,71.42
2023-02-11T13:28:48.808Z,71.32
2023-02-11T13:29:50.370Z,70.83
2023-02-11T13:31:02.083Z,70.76
2023-02-11T13:32:48.178Z,71.02
2023-02-11T13:33:51.117Z,70.84
2023-02-11T13:34:53.093Z,70.43
2023-02-11T13:35:57.883Z,70.70
2023-02-11T13:37:07.592Z,70.60
2023-02-11T13:38:22.338Z,70.59
2023-02-11T13:39:58.797Z,70.08
2023-02-11T13:42:10.532Z,69.89
2023-02-11T13:43:38.662Z,69.88
2023-02-11T13:44:43.245Z,69.81
2023-02-11T13:46:10.385Z,70.17
2023-02-11T13:47:34.533Z,69.66
2023-02-11T13:48:38.979Z,69.45
2023-02-11T13:50:22.654Z,69.51
2023-02-11T13:51:39.689Z,69.69
2023-02-11T13:52:42.909Z,69.83
2023-02-11T13:53:56.018Z,70.19
2023-02-11T13:55:06.672Z,70.10
2023-02-11T13:56:33.330Z,69.96
2023-02-11T13:57:38.090Z,69.92
2023-02-11T13:59:02.029Z,69.39
2023-02-11T14:00:25.435Z,69.83
2023-02-11T14:02:12.890Z,70.22
2023-02-11T14:03:33.578Z,70.60
2023-02-11T14:04:53.413Z,70.68
2023-02-11T14:06:28.595Z,70.74
2023-02-11T14:07:55.532Z,71.59
2023-02-11T14:09:17.311Z,71.56
2023-02-11T14:10:43.518Z,72.34
2023-02-11T14:11:51.340Z,71.90
2023-02-11T14:13:18.608Z,71.81
2023-02-11T14:14:23.779Z,72.18
2023-02-11T14:19:46.358Z,72.07
2023-02-11T14:22:03.108Z,72.63
2023-02-11T14:24:36.756Z,73.36
2023-02-11T14:29:16.789Z,73.82
2023-02-11T14:30:41.438Z,74.49
2023-02-11T14:32:08.124Z,73.74
2023-02-11T14:33:39.023Z,73.98
2023-02-11T14:34:51.438Z,74.13
2023-02-11T14:38:48.852Z,73.89
2023-02-11T14:40:29.789Z,73.52
2023-02-11T14:41:40.135Z,74.00